Myra Eckstein — WDF9473 — position and weather

sailwx.info

Track history (hours):
 
Tides and Currents Weather Stations Pressure Air Temp Water Temp Dewpoint Dewpoint Depression Visibility Wind Speed Wind Dir Waves Ship Positions

Myra Eckstein

Owner: Marquette Transportation Co. LLC, Paducah, KY. More information available from US FCC via Universal Licensing System and Coast Guard Vessel Documentation Center.

Last reported at 2014-Dec-09 11:33 UTC. Time now 2014-Dec-19 13:00 UTC.
Position N 30°07' W 090°57'.
Warning: this ship's position is 10 days out of date.

Length 47 m; draft 3.5 m.

Type: Towing. MMSI: 367505510.

Date/timePositionNaut miles runAvg speedWind from/ knotsBaromVisibWave heightAir tempDewpointWater temp
2014-Dec-09 11:33N 30°07' W 090°57'2 1.8
2014-Dec-09 10:21N 30°06' W 090°55'2 2.5
2014-Dec-09 09:33N 30°04' W 090°54'0 0.0
2014-Dec-09 08:31N 30°04' W 090°54'0 0.0
2014-Dec-09 07:33N 30°04' W 090°54'23 0.8
2014-Dec-08 00:27N 29°60' W 090°27'10 0.2
2014-Dec-06 00:10N 29°58' W 090°16'16 0.4
2014-Dec-04 09:30N 30°03' W 090°34'0 0.0
2014-Dec-04 08:29N 30°03' W 090°34'0 0.0
2014-Dec-04 05:17N 30°03' W 090°34'0 0.0
2014-Dec-04 04:27N 30°03' W 090°34'  
Track history (hours):
 
Tides and Currents Weather Stations Pressure Air Temp Water Temp Dewpoint Dewpoint Depression Visibility Wind Speed Wind Dir Waves Ship Positions

Myra Eckstein

Owner: Marquette Transportation Co. LLC, Paducah, KY. More information available from US FCC via Universal Licensing System and Coast Guard Vessel Documentation Center.

Last reported at 2014-Dec-09 11:33 UTC. Time now 2014-Dec-19 13:00 UTC.
Position N 30°07' W 090°57'.
Warning: this ship's position is 10 days out of date.

Length 47 m; draft 3.5 m.

Type: Towing. MMSI: 367505510.

Date/timePositionNaut miles runAvg speedWind from/ knotsBaromVisibWave heightAir tempDewpointWater temp
2014-Dec-09 11:33N 30°07' W 090°57'2 1.8
2014-Dec-09 10:21N 30°06' W 090°55'2 2.5
2014-Dec-09 09:33N 30°04' W 090°54'0 0.0
2014-Dec-09 08:31N 30°04' W 090°54'0 0.0
2014-Dec-09 07:33N 30°04' W 090°54'23 0.8
2014-Dec-08 00:27N 29°60' W 090°27'10 0.2
2014-Dec-06 00:10N 29°58' W 090°16'16 0.4
2014-Dec-04 09:30N 30°03' W 090°34'0 0.0
2014-Dec-04 08:29N 30°03' W 090°34'0 0.0
2014-Dec-04 05:17N 30°03' W 090°34'0 0.0
2014-Dec-04 04:27N 30°03' W 090°34'  

Dump ship's entire track history